sensor_id;sensor_type;location;lat;lon;timestamp;pressure;altitude;pressure_sealevel;temperature;humidity
64698;BME280;51124;53.394;-6.294;2023-04-05T00:02:23;101086.79;;;17.85;9.49
64698;BME280;51124;53.394;-6.294;2023-04-05T00:04:57;101082.02;;;17.53;9.59
64698;BME280;51124;53.394;-6.294;2023-04-05T00:07:35;101074.67;;;17.77;9.35
64698;BME280;51124;53.394;-6.294;2023-04-05T00:10:02;101073.63;;;17.59;9.55
64698;BME280;51124;53.394;-6.294;2023-04-05T00:12:29;101065.78;;;18.00;9.34
64698;BME280;51124;53.394;-6.294;2023-04-05T00:14:57;101065.79;;;17.71;9.55
64698;BME280;51124;53.394;-6.294;2023-04-05T00:17:24;101066.00;;;18.20;9.31
64698;BME280;51124;53.394;-6.294;2023-04-05T00:19:52;101067.88;;;16.99;9.43
64698;BME280;51124;53.394;-6.294;2023-04-05T00:22:19;101071.48;;;16.40;9.64
64698;BME280;51124;53.394;-6.294;2023-04-05T00:24:47;101068.31;;;17.29;9.27
64698;BME280;51124;53.394;-6.294;2023-04-05T00:27:14;101067.29;;;16.98;9.23
64698;BME280;51124;53.394;-6.294;2023-04-05T00:29:41;101065.36;;;21.10;9.44
64698;BME280;51124;53.394;-6.294;2023-04-05T00:32:09;101062.16;;;21.48;10.18
64698;BME280;51124;53.394;-6.294;2023-04-05T00:34:36;101063.93;;;16.21;11.01
64698;BME280;51124;53.394;-6.294;2023-04-05T00:37:04;101050.01;;;16.59;10.19
64698;BME280;51124;53.394;-6.294;2023-04-05T00:39:31;101048.07;;;17.05;9.91
64698;BME280;51124;53.394;-6.294;2023-04-05T00:42:01;101041.36;;;17.89;9.62
64698;BME280;51124;53.394;-6.294;2023-04-05T00:44:28;101040.02;;;17.95;9.57
64698;BME280;51124;53.394;-6.294;2023-04-05T00:46:56;101044.50;;;15.95;9.80
64698;BME280;51124;53.394;-6.294;2023-04-05T00:49:23;101038.40;;;16.55;9.57
64698;BME280;51124;53.394;-6.294;2023-04-05T00:51:50;101035.11;;;16.67;9.39
64698;BME280;51124;53.394;-6.294;2023-04-05T00:54:19;101034.50;;;17.19;9.44
64698;BME280;51124;53.394;-6.294;2023-04-05T00:56:47;101023.34;;;17.41;9.21
64698;BME280;51124;53.394;-6.294;2023-04-05T00:59:14;101027.52;;;16.31;9.59
64698;BME280;51124;53.394;-6.294;2023-04-05T01:01:42;101026.78;;;16.83;9.43
64698;BME280;51124;53.394;-6.294;2023-04-05T01:04:10;101021.91;;;17.42;9.37
64698;BME280;51124;53.394;-6.294;2023-04-05T01:06:47;101019.86;;;16.59;9.56
64698;BME280;51124;53.394;-6.294;2023-04-05T01:09:16;101012.70;;;16.64;9.65
64698;BME280;51124;53.394;-6.294;2023-04-05T01:11:37;101012.17;;;17.41;9.34
64698;BME280;51124;53.394;-6.294;2023-04-05T01:14:05;101010.54;;;16.89;9.23
64698;BME280;51124;53.394;-6.294;2023-04-05T01:16:32;101015.25;;;17.45;9.40
64698;BME280;51124;53.394;-6.294;2023-04-05T01:19:00;101009.79;;;17.27;9.54
64698;BME280;51124;53.394;-6.294;2023-04-05T01:24:16;101004.49;;;17.98;9.74
64698;BME280;51124;53.394;-6.294;2023-04-05T01:26:54;101006.75;;;16.61;9.51
64698;BME280;51124;53.394;-6.294;2023-04-05T01:29:24;101002.70;;;17.44;9.27
64698;BME280;51124;53.394;-6.294;2023-04-05T01:31:40;101005.60;;;16.71;9.11
64698;BME280;51124;53.394;-6.294;2023-04-05T01:34:15;101006.51;;;17.12;9.03
64698;BME280;51124;53.394;-6.294;2023-04-05T01:36:38;101008.23;;;18.13;8.91
64698;BME280;51124;53.394;-6.294;2023-04-05T01:39:10;101006.38;;;20.01;9.43
64698;BME280;51124;53.394;-6.294;2023-04-05T01:41:40;101008.11;;;19.07;9.86
64698;BME280;51124;53.394;-6.294;2023-04-05T01:44:08;101007.00;;;18.27;9.83
64698;BME280;51124;53.394;-6.294;2023-04-05T01:46:35;101008.01;;;20.96;9.86
64698;BME280;51124;53.394;-6.294;2023-04-05T01:49:03;101008.81;;;20.62;10.37
64698;BME280;51124;53.394;-6.294;2023-04-05T01:51:31;101018.31;;;20.14;10.77
64698;BME280;51124;53.394;-6.294;2023-04-05T01:53:59;101010.03;;;20.16;11.04
64698;BME280;51124;53.394;-6.294;2023-04-05T01:56:27;101008.92;;;20.35;11.08
64698;BME280;51124;53.394;-6.294;2023-04-05T01:58:54;101000.66;;;19.79;11.25
64698;BME280;51124;53.394;-6.294;2023-04-05T02:01:22;100996.21;;;19.87;11.42
64698;BME280;51124;53.394;-6.294;2023-04-05T02:03:50;100986.63;;;19.49;11.34
64698;BME280;51124;53.394;-6.294;2023-04-05T02:06:18;100984.64;;;19.83;11.49
64698;BME280;51124;53.394;-6.294;2023-04-05T02:08:46;100984.19;;;19.73;11.57
64698;BME280;51124;53.394;-6.294;2023-04-05T02:11:14;100979.97;;;20.04;11.34
64698;BME280;51124;53.394;-6.294;2023-04-05T02:13:41;100983.67;;;19.44;11.53
64698;BME280;51124;53.394;-6.294;2023-04-05T02:16:09;100979.15;;;19.14;11.59
64698;BME280;51124;53.394;-6.294;2023-04-05T02:18:37;100975.63;;;19.46;11.53
64698;BME280;51124;53.394;-6.294;2023-04-05T02:21:07;100974.19;;;19.34;11.60
64698;BME280;51124;53.394;-6.294;2023-04-05T02:23:36;100973.77;;;19.19;11.62
64698;BME280;51124;53.394;-6.294;2023-04-05T02:26:04;100969.95;;;19.47;11.49
64698;BME280;51124;53.394;-6.294;2023-04-05T02:28:32;100969.87;;;19.74;11.52
64698;BME280;51124;53.394;-6.294;2023-04-05T02:31:00;100967.29;;;19.62;11.39
64698;BME280;51124;53.394;-6.294;2023-04-05T02:33:27;100961.09;;;17.39;11.29
64698;BME280;51124;53.394;-6.294;2023-04-05T02:35:55;100961.01;;;17.92;10.83
64698;BME280;51124;53.394;-6.294;2023-04-05T02:38:22;100952.83;;;17.17;10.48
64698;BME280;51124;53.394;-6.294;2023-04-05T02:40:50;100945.67;;;17.20;10.24
64698;BME280;51124;53.394;-6.294;2023-04-05T02:43:17;100939.77;;;18.09;9.99
64698;BME280;51124;53.394;-6.294;2023-04-05T02:45:45;100939.54;;;17.99;9.85
64698;BME280;51124;53.394;-6.294;2023-04-05T02:48:12;100942.35;;;17.06;9.74
64698;BME280;51124;53.394;-6.294;2023-04-05T02:50:39;100935.52;;;17.64;9.51
64698;BME280;51124;53.394;-6.294;2023-04-05T02:53:07;100931.72;;;17.12;9.49
64698;BME280;51124;53.394;-6.294;2023-04-05T02:55:34;100928.70;;;17.11;9.46
64698;BME280;51124;53.394;-6.294;2023-04-05T02:58:02;100930.41;;;17.22;9.42
64698;BME280;51124;53.394;-6.294;2023-04-05T03:00:29;100928.97;;;17.67;9.27
64698;BME280;51124;53.394;-6.294;2023-04-05T03:02:56;100927.13;;;16.74;9.40
64698;BME280;51124;53.394;-6.294;2023-04-05T03:05:24;100920.54;;;17.55;9.15
64698;BME280;51124;53.394;-6.294;2023-04-05T03:07:51;100917.31;;;17.03;9.18
64698;BME280;51124;53.394;-6.294;2023-04-05T03:10:20;100917.92;;;17.36;8.91
64698;BME280;51124;53.394;-6.294;2023-04-05T03:12:47;100912.78;;;15.76;8.98
64698;BME280;51124;53.394;-6.294;2023-04-05T03:15:15;100911.41;;;17.27;8.97
64698;BME280;51124;53.394;-6.294;2023-04-05T03:17:42;100911.40;;;17.80;8.89
64698;BME280;51124;53.394;-6.294;2023-04-05T03:20:10;100909.09;;;17.10;8.94
64698;BME280;51124;53.394;-6.294;2023-04-05T03:22:38;100905.92;;;17.10;9.01
64698;BME280;51124;53.394;-6.294;2023-04-05T03:25:06;100901.28;;;17.76;8.83
64698;BME280;51124;53.394;-6.294;2023-04-05T03:27:34;100905.41;;;17.55;8.77
64698;BME280;51124;53.394;-6.294;2023-04-05T03:30:02;100902.78;;;17.13;8.86
64698;BME280;51124;53.394;-6.294;2023-04-05T03:32:29;100899.68;;;17.43;8.72
64698;BME280;51124;53.394;-6.294;2023-04-05T03:34:57;100902.23;;;16.97;8.82
64698;BME280;51124;53.394;-6.294;2023-04-05T03:37:24;100898.95;;;17.17;8.84
64698;BME280;51124;53.394;-6.294;2023-04-05T03:39:52;100899.08;;;18.57;8.58
64698;BME280;51124;53.394;-6.294;2023-04-05T03:42:19;100898.45;;;16.44;9.00
64698;BME280;51124;53.394;-6.294;2023-04-05T03:44:48;100894.96;;;16.96;8.75
64698;BME280;51124;53.394;-6.294;2023-04-05T03:47:15;100896.77;;;17.18;8.87
64698;BME280;51124;53.394;-6.294;2023-04-05T03:49:43;100892.84;;;16.79;8.82
64698;BME280;51124;53.394;-6.294;2023-04-05T03:52:10;100893.88;;;17.30;8.70
64698;BME280;51124;53.394;-6.294;2023-04-05T03:54:37;100892.96;;;17.10;8.92
64698;BME280;51124;53.394;-6.294;2023-04-05T03:57:04;100888.66;;;17.46;8.66
64698;BME280;51124;53.394;-6.294;2023-04-05T03:59:32;100886.33;;;18.00;8.77
64698;BME280;51124;53.394;-6.294;2023-04-05T04:02:00;100883.41;;;16.81;8.95
64698;BME280;51124;53.394;-6.294;2023-04-05T04:04:27;100879.46;;;17.37;8.80
64698;BME280;51124;53.394;-6.294;2023-04-05T04:06:55;100877.47;;;17.67;8.90
64698;BME280;51124;53.394;-6.294;2023-04-05T04:09:22;100879.45;;;17.05;8.99
64698;BME280;51124;53.394;-6.294;2023-04-05T04:11:50;100879.88;;;17.73;8.92
64698;BME280;51124;53.394;-6.294;2023-04-05T04:14:17;100881.39;;;16.85;8.85
64698;BME280;51124;53.394;-6.294;2023-04-05T04:16:44;100875.91;;;17.28;8.89
64698;BME280;51124;53.394;-6.294;2023-04-05T04:19:12;100878.72;;;17.36;8.85
64698;BME280;51124;53.394;-6.294;2023-04-05T04:21:39;100878.79;;;17.28;8.86
64698;BME280;51124;53.394;-6.294;2023-04-05T04:24:07;100873.77;;;16.87;8.98
64698;BME280;51124;53.394;-6.294;2023-04-05T04:26:34;100877.06;;;17.65;8.74
64698;BME280;51124;53.394;-6.294;2023-04-05T04:29:01;100876.44;;;16.41;9.01
64698;BME280;51124;53.394;-6.294;2023-04-05T04:31:28;100877.32;;;17.48;8.64
64698;BME280;51124;53.394;-6.294;2023-04-05T04:33:56;100872.03;;;17.39;8.67
64698;BME280;51124;53.394;-6.294;2023-04-05T04:36:23;100871.13;;;17.63;8.65
64698;BME280;51124;53.394;-6.294;2023-04-05T04:38:51;100870.15;;;20.39;9.11
64698;BME280;51124;53.394;-6.294;2023-04-05T04:41:19;100874.04;;;19.39;9.73
64698;BME280;51124;53.394;-6.294;2023-04-05T04:43:46;100872.07;;;17.48;9.71
64698;BME280;51124;53.394;-6.294;2023-04-05T04:46:14;100870.41;;;21.08;9.59
64698;BME280;51124;53.394;-6.294;2023-04-05T04:48:42;100871.95;;;20.80;10.24
64698;BME280;51124;53.394;-6.294;2023-04-05T04:51:10;100873.42;;;20.62;10.54
64698;BME280;51124;53.394;-6.294;2023-04-05T04:53:38;100869.64;;;19.98;10.70
64698;BME280;51124;53.394;-6.294;2023-04-05T04:56:07;100870.41;;;19.72;10.94
64698;BME280;51124;53.394;-6.294;2023-04-05T04:58:35;100867.01;;;19.21;11.18
64698;BME280;51124;53.394;-6.294;2023-04-05T05:01:08;100867.59;;;19.67;11.23
64698;BME280;51124;53.394;-6.294;2023-04-05T05:03:36;100867.01;;;19.47;11.29
64698;BME280;51124;53.394;-6.294;2023-04-05T05:06:04;100867.22;;;20.15;11.15
64698;BME280;51124;53.394;-6.294;2023-04-05T05:08:32;100861.93;;;20.49;11.18
64698;BME280;51124;53.394;-6.294;2023-04-05T05:11:00;100860.87;;;19.40;11.33
64698;BME280;51124;53.394;-6.294;2023-04-05T05:13:28;100858.14;;;19.72;11.24
64698;BME280;51124;53.394;-6.294;2023-04-05T05:15:55;100854.96;;;19.39;11.43
64698;BME280;51124;53.394;-6.294;2023-04-05T05:18:23;100848.81;;;19.56;11.52
64698;BME280;51124;53.394;-6.294;2023-04-05T05:20:51;100843.67;;;19.17;11.61
64698;BME280;51124;53.394;-6.294;2023-04-05T05:23:19;100840.70;;;19.18;11.53
64698;BME280;51124;53.394;-6.294;2023-04-05T05:25:47;100839.00;;;19.94;11.28
64698;BME280;51124;53.394;-6.294;2023-04-05T05:28:15;100837.80;;;19.91;11.40
64698;BME280;51124;53.394;-6.294;2023-04-05T05:30:52;100838.34;;;19.15;11.60
64698;BME280;51124;53.394;-6.294;2023-04-05T05:33:20;100837.45;;;19.92;11.31
64698;BME280;51124;53.394;-6.294;2023-04-05T05:35:49;100837.48;;;19.45;11.41
64698;BME280;51124;53.394;-6.294;2023-04-05T05:38:17;100829.09;;;17.39;11.13
64698;BME280;51124;53.394;-6.294;2023-04-05T05:40:44;100830.15;;;17.68;10.56
64698;BME280;51124;53.394;-6.294;2023-04-05T05:43:12;100827.46;;;16.88;10.51
64698;BME280;51124;53.394;-6.294;2023-04-05T05:45:39;100829.58;;;17.04;10.09
64698;BME280;51124;53.394;-6.294;2023-04-05T05:48:07;100830.67;;;17.72;9.85
64698;BME280;51124;53.394;-6.294;2023-04-05T05:50:34;100830.91;;;18.35;9.76
64698;BME280;51124;53.394;-6.294;2023-04-05T05:53:01;100830.17;;;18.13;9.51
64698;BME280;51124;53.394;-6.294;2023-04-05T05:55:29;100833.70;;;16.74;9.53
64698;BME280;51124;53.394;-6.294;2023-04-05T05:57:56;100835.75;;;16.63;9.58
64698;BME280;51124;53.394;-6.294;2023-04-05T06:00:20;100834.94;;;17.46;9.20
64698;BME280;51124;53.394;-6.294;2023-04-05T06:02:53;100834.40;;;17.39;9.11
64698;BME280;51124;53.394;-6.294;2023-04-05T06:05:27;100831.78;;;18.18;9.05
64698;BME280;51124;53.394;-6.294;2023-04-05T06:08:00;100832.40;;;17.20;9.25
64698;BME280;51124;53.394;-6.294;2023-04-05T06:10:35;100829.09;;;16.79;9.04
64698;BME280;51124;53.394;-6.294;2023-04-05T06:13:08;100827.94;;;17.43;9.04
64698;BME280;51124;53.394;-6.294;2023-04-05T06:15:42;100830.89;;;16.86;8.92
64698;BME280;51124;53.394;-6.294;2023-04-05T06:18:16;100827.46;;;17.26;8.91
64698;BME280;51124;53.394;-6.294;2023-04-05T06:20:49;100826.69;;;16.97;8.80
64698;BME280;51124;53.394;-6.294;2023-04-05T06:23:23;100825.82;;;17.18;8.71
64698;BME280;51124;53.394;-6.294;2023-04-05T06:25:56;100827.85;;;17.57;8.73
64698;BME280;51124;53.394;-6.294;2023-04-05T06:28:30;100820.09;;;17.38;8.66
64698;BME280;51124;53.394;-6.294;2023-04-05T06:31:04;100820.32;;;17.42;8.61
64698;BME280;51124;53.394;-6.294;2023-04-05T06:33:37;100818.89;;;17.49;8.54
64698;BME280;51124;53.394;-6.294;2023-04-05T06:36:10;100815.26;;;16.63;8.87
64698;BME280;51124;53.394;-6.294;2023-04-05T06:38:44;100811.80;;;17.92;8.43
64698;BME280;51124;53.394;-6.294;2023-04-05T06:41:18;100809.03;;;18.35;8.22
64698;BME280;51124;53.394;-6.294;2023-04-05T06:43:51;100806.23;;;18.96;8.22
64698;BME280;51124;53.394;-6.294;2023-04-05T06:46:25;100806.74;;;19.01;8.20
64698;BME280;51124;53.394;-6.294;2023-04-05T06:48:58;100804.52;;;19.21;8.16
64698;BME280;51124;53.394;-6.294;2023-04-05T06:51:32;100807.71;;;19.01;8.26
64698;BME280;51124;53.394;-6.294;2023-04-05T06:54:05;100806.49;;;19.82;8.25
64698;BME280;51124;53.394;-6.294;2023-04-05T06:56:38;100803.58;;;19.84;8.19
64698;BME280;51124;53.394;-6.294;2023-04-05T06:59:12;100803.60;;;19.72;8.19
64698;BME280;51124;53.394;-6.294;2023-04-05T07:01:46;100804.18;;;19.90;8.17
64698;BME280;51124;53.394;-6.294;2023-04-05T07:04:20;100796.44;;;20.22;8.25
64698;BME280;51124;53.394;-6.294;2023-04-05T07:06:53;100798.20;;;19.44;8.24
64698;BME280;51124;53.394;-6.294;2023-04-05T07:09:27;100808.62;;;18.43;8.58
64698;BME280;51124;53.394;-6.294;2023-04-05T07:12:03;100805.37;;;20.70;8.27
64698;BME280;51124;53.394;-6.294;2023-04-05T07:14:28;100803.89;;;20.45;8.30
64698;BME280;51124;53.394;-6.294;2023-04-05T07:17:03;100805.45;;;19.62;8.52
64698;BME280;51124;53.394;-6.294;2023-04-05T07:19:36;100803.65;;;19.96;8.54
64698;BME280;51124;53.394;-6.294;2023-04-05T07:22:10;100802.86;;;19.85;8.53
64698;BME280;51124;53.394;-6.294;2023-04-05T07:24:44;100801.87;;;19.58;8.49
64698;BME280;51124;53.394;-6.294;2023-04-05T07:27:17;100800.52;;;19.87;8.50
64698;BME280;51124;53.394;-6.294;2023-04-05T07:29:51;100802.02;;;19.91;8.52
64698;BME280;51124;53.394;-6.294;2023-04-05T07:32:25;100798.34;;;19.88;8.12
64698;BME280;51124;53.394;-6.294;2023-04-05T07:34:58;100802.00;;;19.23;8.52
64698;BME280;51124;53.394;-6.294;2023-04-05T07:37:31;100802.57;;;18.13;8.69
64698;BME280;51124;53.394;-6.294;2023-04-05T07:40:06;100796.91;;;18.80;8.61
64698;BME280;51124;53.394;-6.294;2023-04-05T07:42:40;100799.86;;;20.34;8.82
64698;BME280;51124;53.394;-6.294;2023-04-05T07:45:13;100808.04;;;20.40;9.64
64698;BME280;51124;53.394;-6.294;2023-04-05T07:47:47;100808.22;;;20.65;10.02
64698;BME280;51124;53.394;-6.294;2023-04-05T07:50:21;100805.63;;;18.30;10.20
64698;BME280;51124;53.394;-6.294;2023-04-05T07:52:55;100805.94;;;21.45;10.04
64698;BME280;51124;53.394;-6.294;2023-04-05T07:55:29;100802.40;;;21.87;10.67
64698;BME280;51124;53.394;-6.294;2023-04-05T07:58:03;100801.74;;;21.22;11.02
64698;BME280;51124;53.394;-6.294;2023-04-05T08:00:37;100801.17;;;21.38;11.13
64698;BME280;51124;53.394;-6.294;2023-04-05T08:03:11;100800.79;;;21.35;11.36
64698;BME280;51124;53.394;-6.294;2023-04-05T08:05:45;100799.36;;;21.56;11.41
64698;BME280;51124;53.394;-6.294;2023-04-05T08:08:19;100795.53;;;21.55;11.43
64698;BME280;51124;53.394;-6.294;2023-04-05T08:10:53;100797.39;;;21.36;11.45
64698;BME280;51124;53.394;-6.294;2023-04-05T08:13:27;100795.52;;;21.25;11.60
64698;BME280;51124;53.394;-6.294;2023-04-05T08:16:10;100796.94;;;21.39;11.62
64698;BME280;51124;53.394;-6.294;2023-04-05T08:18:33;100796.69;;;21.59;11.47
64698;BME280;51124;53.394;-6.294;2023-04-05T08:21:07;100794.40;;;22.24;11.43
64698;BME280;51124;53.394;-6.294;2023-04-05T08:23:41;100792.94;;;22.37;11.41
64698;BME280;51124;53.394;-6.294;2023-04-05T08:26:15;100791.54;;;22.12;11.37
64698;BME280;51124;53.394;-6.294;2023-04-05T08:28:49;100793.98;;;21.63;11.43
64698;BME280;51124;53.394;-6.294;2023-04-05T08:31:23;100789.94;;;22.27;11.50
64698;BME280;51124;53.394;-6.294;2023-04-05T08:33:57;100790.28;;;21.54;11.47
64698;BME280;51124;53.394;-6.294;2023-04-05T08:36:31;100792.79;;;21.31;11.68
64698;BME280;51124;53.394;-6.294;2023-04-05T08:39:05;100795.93;;;21.97;11.47
64698;BME280;51124;53.394;-6.294;2023-04-05T08:41:44;100791.40;;;22.11;11.58
64698;BME280;51124;53.394;-6.294;2023-04-05T08:44:09;100791.47;;;20.03;11.57
64698;BME280;51124;53.394;-6.294;2023-04-05T08:46:43;100792.21;;;19.12;11.16
64698;BME280;51124;53.394;-6.294;2023-04-05T08:49:18;100788.76;;;20.26;10.60
64698;BME280;51124;53.394;-6.294;2023-04-05T08:51:52;100787.31;;;18.88;10.57
64698;BME280;51124;53.394;-6.294;2023-04-05T08:54:26;100777.92;;;19.91;10.00
64698;BME280;51124;53.394;-6.294;2023-04-05T08:57:02;100779.67;;;20.23;9.87
64698;BME280;51124;53.394;-6.294;2023-04-05T08:59:28;100776.65;;;20.22;9.63
64698;BME280;51124;53.394;-6.294;2023-04-05T09:01:52;100777.30;;;20.03;9.71
64698;BME280;51124;53.394;-6.294;2023-04-05T09:04:20;100775.33;;;20.91;9.43
64698;BME280;51124;53.394;-6.294;2023-04-05T09:06:44;100780.30;;;19.94;9.51
64698;BME280;51124;53.394;-6.294;2023-04-05T09:09:19;100783.35;;;20.82;9.26
64698;BME280;51124;53.394;-6.294;2023-04-05T09:11:43;100784.12;;;20.14;9.27
64698;BME280;51124;53.394;-6.294;2023-04-05T09:14:18;100783.01;;;19.81;9.37
64698;BME280;51124;53.394;-6.294;2023-04-05T09:16:43;100782.59;;;21.07;8.86
64698;BME280;51124;53.394;-6.294;2023-04-05T09:19:17;100783.21;;;22.02;8.05
64698;BME280;51124;53.394;-6.294;2023-04-05T09:22:02;100783.03;;;20.06;8.94
64698;BME280;51124;53.394;-6.294;2023-04-05T09:24:30;100778.36;;;20.07;8.58
64698;BME280;51124;53.394;-6.294;2023-04-05T09:27:02;100781.29;;;20.81;8.41
64698;BME280;51124;53.394;-6.294;2023-04-05T09:29:31;100781.64;;;20.63;8.46
64698;BME280;51124;53.394;-6.294;2023-04-05T09:31:54;100777.28;;;20.54;8.50
64698;BME280;51124;53.394;-6.294;2023-04-05T09:34:29;100782.60;;;20.37;8.39
64698;BME280;51124;53.394;-6.294;2023-04-05T09:37:11;100780.66;;;20.59;8.44
64698;BME280;51124;53.394;-6.294;2023-04-05T09:39:34;100784.56;;;21.09;8.36
64698;BME280;51124;53.394;-6.294;2023-04-05T09:42:09;100784.18;;;20.69;8.42
64698;BME280;51124;53.394;-6.294;2023-04-05T09:44:52;100783.70;;;20.72;8.37
64698;BME280;51124;53.394;-6.294;2023-04-05T09:47:16;100785.01;;;21.00;8.29
64698;BME280;51124;53.394;-6.294;2023-04-05T09:49:50;100786.79;;;20.31;8.35
64698;BME280;51124;53.394;-6.294;2023-04-05T09:52:25;100787.16;;;19.92;8.34
64698;BME280;51124;53.394;-6.294;2023-04-05T09:55:00;100790.02;;;20.62;8.24
64698;BME280;51124;53.394;-6.294;2023-04-05T09:57:25;100784.94;;;21.16;8.28
64698;BME280;51124;53.394;-6.294;2023-04-05T09:59:58;100783.55;;;20.22;8.32
64698;BME280;51124;53.394;-6.294;2023-04-05T10:02:35;100784.52;;;20.35;8.29
64698;BME280;51124;53.394;-6.294;2023-04-05T10:05:05;100788.14;;;20.98;8.15
64698;BME280;51124;53.394;-6.294;2023-04-05T10:07:28;100785.15;;;20.81;8.09
64698;BME280;51124;53.394;-6.294;2023-04-05T10:10:02;100786.33;;;21.02;8.06
64698;BME280;51124;53.394;-6.294;2023-04-05T10:12:37;100780.68;;;20.33;8.10
64698;BME280;51124;53.394;-6.294;2023-04-05T10:15:01;100779.46;;;20.43;8.04
64698;BME280;51124;53.394;-6.294;2023-04-05T10:17:38;100775.29;;;20.57;7.95
64698;BME280;51124;53.394;-6.294;2023-04-05T10:20:13;100775.82;;;20.84;8.02
64698;BME280;51124;53.394;-6.294;2023-04-05T10:22:42;100774.91;;;22.16;8.05
64698;BME280;51124;53.394;-6.294;2023-04-05T10:25:21;100773.33;;;21.86;8.04
64698;BME280;51124;53.394;-6.294;2023-04-05T10:27:40;100772.07;;;20.84;8.15
64698;BME280;51124;53.394;-6.294;2023-04-05T10:30:08;100773.50;;;21.74;8.12
64698;BME280;51124;53.394;-6.294;2023-04-05T10:32:42;100775.64;;;20.79;8.01
64698;BME280;51124;53.394;-6.294;2023-04-05T10:35:09;100773.57;;;22.07;7.93
64698;BME280;51124;53.394;-6.294;2023-04-05T10:37:38;100773.13;;;19.90;8.26
64698;BME280;51124;53.394;-6.294;2023-04-05T10:40:07;100771.75;;;21.46;8.04
64698;BME280;51124;53.394;-6.294;2023-04-05T10:42:38;100771.63;;;20.50;8.05
64698;BME280;51124;53.394;-6.294;2023-04-05T10:45:02;100772.71;;;20.96;7.98
64698;BME280;51124;53.394;-6.294;2023-04-05T10:47:31;100772.82;;;20.09;8.05
64698;BME280;51124;53.394;-6.294;2023-04-05T10:50:02;100770.57;;;20.98;7.90
64698;BME280;51124;53.394;-6.294;2023-04-05T10:52:27;100763.17;;;22.34;7.89
64698;BME280;51124;53.394;-6.294;2023-04-05T10:54:51;100762.53;;;23.42;8.42
64698;BME280;51124;53.394;-6.294;2023-04-05T10:57:26;100761.80;;;23.11;8.54
64698;BME280;51124;53.394;-6.294;2023-04-05T11:00:00;100762.83;;;21.83;8.60
64698;BME280;51124;53.394;-6.294;2023-04-05T11:02:34;100760.95;;;23.95;8.10
64698;BME280;51124;53.394;-6.294;2023-04-05T11:05:28;100770.00;;;25.67;8.70
64698;BME280;51124;53.394;-6.294;2023-04-05T11:07:43;100769.15;;;24.92;9.00
64698;BME280;51124;53.394;-6.294;2023-04-05T11:10:18;100771.32;;;23.71;9.71
64698;BME280;51124;53.394;-6.294;2023-04-05T11:13:08;100768.29;;;22.98;9.78
64698;BME280;51124;53.394;-6.294;2023-04-05T11:15:31;100770.75;;;23.52;9.89
64698;BME280;51124;53.394;-6.294;2023-04-05T11:18:01;100769.28;;;23.42;9.97
64698;BME280;51124;53.394;-6.294;2023-04-05T11:20:25;100768.23;;;23.51;9.86
64698;BME280;51124;53.394;-6.294;2023-04-05T11:22:59;100765.15;;;23.24;10.16
64698;BME280;51124;53.394;-6.294;2023-04-05T11:25:37;100763.38;;;22.87;10.24
64698;BME280;51124;53.394;-6.294;2023-04-05T11:28:01;100761.18;;;23.89;10.14
64698;BME280;51124;53.394;-6.294;2023-04-05T11:30:52;100756.50;;;23.72;9.95
64698;BME280;51124;53.394;-6.294;2023-04-05T11:33:07;100757.63;;;23.63;9.93
64698;BME280;51124;53.394;-6.294;2023-04-05T11:35:41;100762.92;;;23.86;10.77
64698;BME280;51124;53.394;-6.294;2023-04-05T11:38:20;100762.75;;;22.82;10.89
64698;BME280;51124;53.394;-6.294;2023-04-05T11:40:44;100756.46;;;22.76;11.25
64698;BME280;51124;53.394;-6.294;2023-04-05T11:43:11;100753.86;;;23.51;10.85
64698;BME280;51124;53.394;-6.294;2023-04-05T11:45:37;100749.61;;;22.59;10.90
64698;BME280;51124;53.394;-6.294;2023-04-05T11:48:04;100744.16;;;22.87;10.83
64698;BME280;51124;53.394;-6.294;2023-04-05T11:50:28;100742.57;;;23.39;10.60
64698;BME280;51124;53.394;-6.294;2023-04-05T11:53:08;100749.16;;;22.38;10.85
64698;BME280;51124;53.394;-6.294;2023-04-05T11:55:32;100738.90;;;20.53;10.68
64698;BME280;51124;53.394;-6.294;2023-04-05T11:58:13;100734.64;;;20.99;10.36
64698;BME280;51124;53.394;-6.294;2023-04-05T12:00:37;100729.64;;;19.46;10.23
64698;BME280;51124;53.394;-6.294;2023-04-05T12:03:11;100725.55;;;21.00;9.62
64698;BME280;51124;53.394;-6.294;2023-04-05T12:05:47;100718.80;;;21.82;9.32
64698;BME280;51124;53.394;-6.294;2023-04-05T12:08:11;100717.69;;;20.87;9.41
64698;BME280;51124;53.394;-6.294;2023-04-05T12:10:53;100714.48;;;20.36;9.25
64698;BME280;51124;53.394;-6.294;2023-04-05T12:13:24;100713.17;;;20.43;9.14
64698;BME280;51124;53.394;-6.294;2023-04-05T12:15:48;100713.60;;;20.33;8.98
64698;BME280;51124;53.394;-6.294;2023-04-05T12:18:23;100708.35;;;21.92;8.50
64698;BME280;51124;53.394;-6.294;2023-04-05T12:20:47;100705.10;;;21.08;8.50
64698;BME280;51124;53.394;-6.294;2023-04-05T12:23:21;100700.51;;;21.63;8.37
64698;BME280;51124;53.394;-6.294;2023-04-05T12:25:55;100698.46;;;21.18;8.47
64698;BME280;51124;53.394;-6.294;2023-04-05T12:28:48;100701.65;;;20.67;8.48
64698;BME280;51124;53.394;-6.294;2023-04-05T12:31:02;100694.18;;;21.07;8.45
64698;BME280;51124;53.394;-6.294;2023-04-05T12:33:40;100690.17;;;20.84;8.47
64698;BME280;51124;53.394;-6.294;2023-04-05T12:36:06;100693.81;;;19.61;8.83
64698;BME280;51124;53.394;-6.294;2023-04-05T12:38:30;100690.52;;;23.26;8.61
64698;BME280;51124;53.394;-6.294;2023-04-05T12:41:04;100693.77;;;20.14;8.84
64698;BME280;51124;53.394;-6.294;2023-04-05T12:43:38;100692.02;;;19.87;8.76
64698;BME280;51124;53.394;-6.294;2023-04-05T12:46:16;100689.02;;;18.50;9.36
64698;BME280;51124;53.394;-6.294;2023-04-05T12:48:40;100686.86;;;18.84;9.42
64698;BME280;51124;53.394;-6.294;2023-04-05T12:51:18;100685.04;;;17.94;9.52
64698;BME280;51124;53.394;-6.294;2023-04-05T12:53:44;100687.50;;;19.16;9.11
64698;BME280;51124;53.394;-6.294;2023-04-05T12:56:09;100694.78;;;17.91;9.64
64698;BME280;51124;53.394;-6.294;2023-04-05T12:58:47;100691.54;;;18.84;9.55
64698;BME280;51124;53.394;-6.294;2023-04-05T13:01:11;100689.10;;;18.65;9.45
64698;BME280;51124;53.394;-6.294;2023-04-05T13:03:46;100687.92;;;19.58;9.10
64698;BME280;51124;53.394;-6.294;2023-04-05T13:06:19;100688.03;;;20.04;9.13